Time;durP1;ratioP1;P1;durP2;ratioP2;P2;SDS_P1;SDS_P2;PMS_P1;PMS_P2;Temp;Humidity;BMP_temperature;BMP_pressure;BME280_temperature;BME280_humidity;BME280_pressure;Samples;Min_cycle;Max_cycle;Signal;HPM_P1;HPM_P2
2020/12/28 00:00:42;;;;;;;;;;;21.60;54.10;;;;;;5112588;28;1273;-65
2020/12/28 00:03:07;;;;;;;;;;;21.60;54.10;;;;;;5112648;28;1312;-64
2020/12/28 00:05:33;;;;;;;;;;;21.60;54.20;;;;;;5112616;28;1202;-65
2020/12/28 00:07:58;;;;;;;;;;;21.60;54.20;;;;;;5112508;28;1243;-64
2020/12/28 00:10:24;;;;;;;;;;;21.50;54.20;;;;;;5112808;28;1955;-64
2020/12/28 00:12:49;;;;;;;;;;;21.50;54.20;;;;;;5112462;28;1291;-65
2020/12/28 00:15:27;;;;;;;;;;;21.50;54.20;;;;;;5112145;28;1319;-65
2020/12/28 00:17:53;;;;;;;;;;;21.50;54.30;;;;;;5112533;28;1911;-64
2020/12/28 00:20:19;;;;;;;;;;;21.50;54.30;;;;;;5112540;28;1331;-65
2020/12/28 00:22:45;;;;;;;;;;;21.50;54.30;;;;;;5094162;28;1377;-66
2020/12/28 00:25:10;;;;;;;;;;;21.50;54.30;;;;;;5111837;28;1189;-64
2020/12/28 00:27:36;;;;;;;;;;;21.50;54.40;;;;;;5112307;28;1245;-65
2020/12/28 00:30:02;;;;;;;;;;;21.40;54.40;;;;;;5112273;28;1901;-64
2020/12/28 00:32:28;;;;;;;;;;;21.50;54.40;;;;;;5112314;28;1312;-65
2020/12/28 00:34:53;;;;;;;;;;;21.40;54.40;;;;;;5112159;28;1219;-65
2020/12/28 00:37:19;;;;;;;;;;;21.40;54.40;;;;;;5112517;28;1343;-66
2020/12/28 00:39:44;;;;;;;;;;;21.40;54.50;;;;;;5112445;28;1179;-65
2020/12/28 00:42:10;;;;;;;;;;;21.40;54.50;;;;;;5093800;28;1120;-65
2020/12/28 00:44:35;;;;;;;;;;;21.40;54.50;;;;;;5112012;28;1286;-65
2020/12/28 00:47:01;;;;;;;;;;;21.40;54.50;;;;;;5112023;28;1329;-65
2020/12/28 00:49:27;;;;;;;;;;;21.40;54.60;;;;;;5112180;28;1921;-64
2020/12/28 00:51:52;;;;;;;;;;;21.40;54.60;;;;;;5112206;28;1223;-65
2020/12/28 00:54:18;;;;;;;;;;;21.40;54.60;;;;;;5111995;28;1329;-65
2020/12/28 00:56:43;;;;;;;;;;;21.40;54.60;;;;;;5111582;28;1257;-66
2020/12/28 00:59:09;;;;;;;;;;;21.30;54.60;;;;;;5100772;28;1098;-63
2020/12/28 01:01:34;;;;;;;;;;;21.30;54.60;;;;;;5112299;28;1300;-63
2020/12/28 01:03:59;;;;;;;;;;;21.30;54.60;;;;;;5111952;28;1341;-64
2020/12/28 01:06:25;;;;;;;;;;;21.30;54.60;;;;;;5111893;28;1249;-63
2020/12/28 01:08:50;;;;;;;;;;;21.30;54.60;;;;;;5112069;28;1286;-63
2020/12/28 01:11:20;;;;;;;;;;;21.30;54.70;;;;;;5111847;28;1965;-66
2020/12/28 01:13:45;;;;;;;;;;;21.30;54.70;;;;;;5093931;28;1369;-63
2020/12/28 01:16:11;;;;;;;;;;;21.30;55.30;;;;;;5111680;28;1303;-63
2020/12/28 01:18:36;;;;;;;;;;;21.30;54.80;;;;;;5111996;28;1268;-65
2020/12/28 01:21:02;;;;;;;;;;;21.30;54.80;;;;;;5111798;28;1300;-64
2020/12/28 01:23:27;;;;;;;;;;;21.30;54.80;;;;;;5111683;28;1283;-65
2020/12/28 01:25:53;;;;;;;;;;;21.20;54.80;;;;;;5111469;28;1341;-64
2020/12/28 01:28:18;;;;;;;;;;;21.20;54.80;;;;;;5111856;28;1320;-65
2020/12/28 01:30:43;;;;;;;;;;;21.20;55.10;;;;;;5111686;28;1952;-63
2020/12/28 01:33:09;;;;;;;;;;;21.20;54.80;;;;;;5111676;28;1318;-64
2020/12/28 01:35:34;;;;;;;;;;;21.20;54.80;;;;;;5111631;28;1303;-63
2020/12/28 01:38:00;;;;;;;;;;;21.20;55.40;;;;;;5113294;28;1248;-66
2020/12/28 01:40:30;;;;;;;;;;;21.20;54.80;;;;;;5115412;28;1287;-64
2020/12/28 01:42:55;;;;;;;;;;;21.20;54.90;;;;;;5115466;28;1365;-64
2020/12/28 01:45:21;;;;;;;;;;;21.20;54.90;;;;;;5115200;28;1269;-64
2020/12/28 01:47:46;;;;;;;;;;;21.20;54.90;;;;;;5115316;28;1246;-64
2020/12/28 01:50:11;;;;;;;;;;;21.20;54.90;;;;;;5115345;28;1977;-63
2020/12/28 01:52:37;;;;;;;;;;;21.20;54.90;;;;;;5115358;28;1265;-63
2020/12/28 01:55:02;;;;;;;;;;;21.20;54.90;;;;;;5115126;28;1369;-65
2020/12/28 01:57:28;;;;;;;;;;;21.20;55.00;;;;;;5108500;28;1057;-63
2020/12/28 01:59:53;;;;;;;;;;;21.10;54.90;;;;;;5110021;28;1309;-63
2020/12/28 02:02:19;;;;;;;;;;;21.10;54.90;;;;;;5115215;28;1246;-64
2020/12/28 02:04:44;;;;;;;;;;;21.10;55.00;;;;;;5096557;28;1387;-66
2020/12/28 02:07:10;;;;;;;;;;;21.10;55.00;;;;;;5096862;28;1082;-64
2020/12/28 02:09:35;;;;;;;;;;;21.10;55.00;;;;;;5096664;28;1902;-64
2020/12/28 02:12:01;;;;;;;;;;;21.10;55.00;;;;;;5114759;28;1301;-64
2020/12/28 02:14:26;;;;;;;;;;;21.10;55.00;;;;;;5096363;28;1283;-63
2020/12/28 02:16:52;;;;;;;;;;;21.10;55.00;;;;;;5105403;28;1075;-63
2020/12/28 02:19:17;;;;;;;;;;;21.10;55.10;;;;;;5096586;28;1348;-63
2020/12/28 02:21:43;;;;;;;;;;;21.10;55.10;;;;;;5114827;28;1353;-65
2020/12/28 02:24:08;;;;;;;;;;;21.10;55.10;;;;;;5114246;28;1326;-63
2020/12/28 02:26:34;;;;;;;;;;;21.10;55.10;;;;;;5114399;28;1252;-64
2020/12/28 02:28:59;;;;;;;;;;;21.10;55.00;;;;;;5114379;28;1101;-64
2020/12/28 02:31:24;;;;;;;;;;;21.10;55.00;;;;;;5111651;28;2005;-63
2020/12/28 02:33:53;;;;;;;;;;;21.10;54.90;;;;;;5106260;28;1382;-63
2020/12/28 02:36:18;;;;;;;;;;;21.10;54.90;;;;;;5106455;28;1314;-62
2020/12/28 02:38:44;;;;;;;;;;;21.20;54.90;;;;;;5106536;28;1339;-63
2020/12/28 02:41:09;;;;;;;;;;;21.20;54.90;;;;;;5107138;28;1199;-64
2020/12/28 02:43:35;;;;;;;;;;;21.10;54.80;;;;;;5105748;28;1364;-63
2020/12/28 02:46:00;;;;;;;;;;;21.20;54.80;;;;;;5103635;28;1220;-63
2020/12/28 02:48:26;;;;;;;;;;;21.20;54.80;;;;;;5104213;28;1367;-63
2020/12/28 02:50:51;;;;;;;;;;;21.20;54.80;;;;;;5103381;28;1902;-63
2020/12/28 02:53:17;;;;;;;;;;;21.20;54.80;;;;;;5111993;28;1384;-63
2020/12/28 02:55:42;;;;;;;;;;;21.10;54.70;;;;;;5103145;28;1227;-64
2020/12/28 02:58:08;;;;;;;;;;;21.10;54.70;;;;;;5104473;28;1278;-64
2020/12/28 03:00:33;;;;;;;;;;;21.10;54.80;;;;;;5108190;28;1282;-63
2020/12/28 03:02:58;;;;;;;;;;;21.10;54.80;;;;;;5105098;28;1377;-64
2020/12/28 03:05:24;;;;;;;;;;;21.10;54.90;;;;;;5102704;28;1255;-63
2020/12/28 03:07:49;;;;;;;;;;;21.10;54.90;;;;;;5103304;28;1231;-65
2020/12/28 03:10:15;;;;;;;;;;;21.10;54.90;;;;;;5104311;28;1910;-64
2020/12/28 03:12:40;;;;;;;;;;;21.10;54.90;;;;;;5102321;28;1357;-64
2020/12/28 03:15:06;;;;;;;;;;;21.10;54.90;;;;;;5104223;28;1843;-66
2020/12/28 03:17:31;;;;;;;;;;;21.10;55.00;;;;;;5105604;28;1281;-64
2020/12/28 03:19:57;;;;;;;;;;;21.10;55.00;;;;;;5085477;28;1294;-65
2020/12/28 03:22:22;;;;;;;;;;;21.10;55.00;;;;;;5104107;28;1223;-65
2020/12/28 03:24:48;;;;;;;;;;;21.10;55.00;;;;;;5104558;28;1298;-66
2020/12/28 03:27:13;;;;;;;;;;;21.00;55.00;;;;;;5105023;28;1317;-65
2020/12/28 03:29:38;;;;;;;;;;;21.00;55.00;;;;;;5104828;28;1910;-64
2020/12/28 03:32:04;;;;;;;;;;;21.00;55.10;;;;;;5105642;28;1219;-66
2020/12/28 03:34:29;;;;;;;;;;;21.00;55.10;;;;;;5105795;28;1380;-64
2020/12/28 03:36:55;;;;;;;;;;;21.00;55.10;;;;;;5104670;28;1282;-65
2020/12/28 03:39:20;;;;;;;;;;;21.00;55.10;;;;;;5105058;28;1262;-65
2020/12/28 03:41:46;;;;;;;;;;;21.00;55.10;;;;;;5104479;28;1610;-65
2020/12/28 03:44:11;;;;;;;;;;;21.00;55.10;;;;;;5105465;28;1275;-65
2020/12/28 03:46:37;;;;;;;;;;;21.00;55.20;;;;;;5105015;28;1262;-67
2020/12/28 03:49:03;;;;;;;;;;;21.00;55.20;;;;;;5107075;28;1183;-66
2020/12/28 03:51:28;;;;;;;;;;;21.00;55.20;;;;;;5104437;28;1410;-68
2020/12/28 03:53:54;;;;;;;;;;;21.00;55.20;;;;;;5103147;28;1336;-64
2020/12/28 03:56:19;;;;;;;;;;;21.00;55.20;;;;;;5105094;28;1254;-64
2020/12/28 03:58:45;;;;;;;;;;;21.00;55.30;;;;;;5088570;28;1339;-64
2020/12/28 04:01:10;;;;;;;;;;;20.90;55.20;;;;;;5103882;28;1235;-65
2020/12/28 04:03:35;;;;;;;;;;;20.90;55.20;;;;;;5102983;28;1294;-64
2020/12/28 04:06:01;;;;;;;;;;;20.90;55.30;;;;;;5103854;28;1239;-64
2020/12/28 04:08:27;;;;;;;;;;;20.90;55.30;;;;;;5106656;28;1350;-66
2020/12/28 04:10:52;;;;;;;;;;;20.90;55.20;;;;;;5101620;28;1961;-64
2020/12/28 04:13:18;;;;;;;;;;;20.90;55.30;;;;;;5103995;28;1395;-64
2020/12/28 04:15:43;;;;;;;;;;;21.00;55.20;;;;;;5113635;28;1186;-64
2020/12/28 04:18:08;;;;;;;;;;;21.00;55.20;;;;;;5107758;28;1190;-67
2020/12/28 04:20:34;;;;;;;;;;;21.00;55.10;;;;;;5105725;28;1317;-64
2020/12/28 04:23:00;;;;;;;;;;;21.10;55.00;;;;;;5113058;28;1384;-65
2020/12/28 04:25:25;;;;;;;;;;;21.20;54.90;;;;;;5095028;28;1376;-65
2020/12/28 04:27:50;;;;;;;;;;;21.20;54.70;;;;;;5113262;28;1110;-65
2020/12/28 04:30:16;;;;;;;;;;;21.30;54.50;;;;;;5113314;28;1918;-65
2020/12/28 04:32:41;;;;;;;;;;;21.40;54.40;;;;;;5113227;28;1310;-66
2020/12/28 04:35:07;;;;;;;;;;;21.50;54.20;;;;;;5101112;28;1090;-69
2020/12/28 04:37:32;;;;;;;;;;;21.60;54.10;;;;;;5111694;28;1339;-67
2020/12/28 04:39:58;;;;;;;;;;;21.60;53.90;;;;;;5113321;28;1312;-65
2020/12/28 04:42:24;;;;;;;;;;;21.70;53.70;;;;;;5113102;28;1322;-66
2020/12/28 04:44:49;;;;;;;;;;;21.70;54.10;;;;;;5113146;28;1355;-65
2020/12/28 04:47:15;;;;;;;;;;;21.80;53.40;;;;;;5112959;28;1305;-65
2020/12/28 04:49:41;;;;;;;;;;;21.80;53.30;;;;;;5113168;28;1962;-65
2020/12/28 04:52:06;;;;;;;;;;;21.90;53.20;;;;;;5094880;28;1333;-65
2020/12/28 04:54:32;;;;;;;;;;;21.90;53.10;;;;;;5094542;28;1414;-66
2020/12/28 04:56:57;;;;;;;;;;;22.00;53.10;;;;;;5110927;28;1330;-68
2020/12/28 04:59:23;;;;;;;;;;;22.00;53.00;;;;;;5104311;28;1349;-66
2020/12/28 05:01:54;;;;;;;;;;;22.00;52.90;;;;;;5112955;28;1379;-65
2020/12/28 05:04:22;;;;;;;;;;;22.00;52.80;;;;;;5112830;28;1322;-65
2020/12/28 05:07:00;;;;;;;;;;;22.10;52.80;;;;;;5112776;28;1107;-64
2020/12/28 05:09:26;;;;;;;;;;;22.10;52.80;;;;;;5113012;28;1975;-66
2020/12/28 05:11:52;;;;;;;;;;;22.10;53.30;;;;;;5096535;28;1275;-66
2020/12/28 05:14:18;;;;;;;;;;;22.20;52.70;;;;;;5098539;28;1370;-65
2020/12/28 05:16:43;;;;;;;;;;;22.20;52.70;;;;;;5116991;28;1091;-64
2020/12/28 05:19:09;;;;;;;;;;;22.20;52.60;;;;;;5098657;28;1333;-64
2020/12/28 05:21:34;;;;;;;;;;;22.20;52.60;;;;;;5116854;28;1344;-64
2020/12/28 05:24:09;;;;;;;;;;;22.20;52.50;;;;;;5135683;22;3678;-70
2020/12/28 05:26:35;;;;;;;;;;;22.30;52.60;;;;;;5113369;28;1698;-67
2020/12/28 05:29:00;;;;;;;;;;;22.30;52.50;;;;;;5098725;28;1507;-68
2020/12/28 05:31:27;;;;;;;;;;;22.30;52.50;;;;;;5078297;28;1905;-69
2020/12/28 05:33:53;;;;;;;;;;;22.30;52.50;;;;;;5092916;28;1634;-69
2020/12/28 05:36:18;;;;;;;;;;;22.30;52.40;;;;;;5098389;28;1420;-69
2020/12/28 05:38:44;;;;;;;;;;;22.30;52.40;;;;;;5098556;28;1699;-69
2020/12/28 05:41:09;;;;;;;;;;;22.30;52.40;;;;;;5098649;28;1687;-70
2020/12/28 05:43:35;;;;;;;;;;;22.40;52.40;;;;;;5098190;28;1718;-69
2020/12/28 05:46:00;;;;;;;;;;;22.40;52.30;;;;;;5116498;28;1721;-71
2020/12/28 05:48:26;;;;;;;;;;;22.40;52.30;;;;;;5098201;28;1780;-70
2020/12/28 05:50:53;;;;;;;;;;;22.40;52.30;;;;;;5090462;28;2038;-69
2020/12/28 05:53:19;;;;;;;;;;;22.40;52.30;;;;;;5078138;28;1640;-69
2020/12/28 05:55:45;;;;;;;;;;;22.40;52.30;;;;;;5094777;28;1723;-69
2020/12/28 05:58:10;;;;;;;;;;;22.40;52.30;;;;;;5095941;28;1398;-69
2020/12/28 06:00:35;;;;;;;;;;;22.40;52.30;;;;;;5094765;28;1652;-69
2020/12/28 06:03:01;;;;;;;;;;;22.40;52.40;;;;;;5077897;28;1696;-70
2020/12/28 06:05:27;;;;;;;;;;;22.40;52.40;;;;;;5077605;28;1774;-70
2020/12/28 06:07:52;;;;;;;;;;;22.40;52.40;;;;;;5095899;28;1739;-68
2020/12/28 06:10:18;;;;;;;;;;;22.40;52.40;;;;;;5077804;28;1977;-69
2020/12/28 06:12:44;;;;;;;;;;;22.40;52.40;;;;;;5077688;28;1614;-69
2020/12/28 06:15:18;;;;;;;;;;;22.40;52.50;;;;;;5095422;28;1240;-68
2020/12/28 06:17:44;;;;;;;;;;;22.30;52.50;;;;;;5094585;28;1726;-69
2020/12/28 06:20:11;;;;;;;;;;;22.30;52.50;;;;;;5077454;28;1593;-68
2020/12/28 06:22:37;;;;;;;;;;;22.30;52.50;;;;;;5077273;28;1447;-69
2020/12/28 06:25:13;;;;;;;;;;;22.30;52.60;;;;;;5094695;28;1660;-69
2020/12/28 06:27:39;;;;;;;;;;;22.30;52.60;;;;;;5077398;28;1399;-68
2020/12/28 06:30:07;;;;;;;;;;;22.30;52.70;;;;;;5095484;28;2002;-68
2020/12/28 06:32:33;;;;;;;;;;;22.20;52.70;;;;;;5095492;28;1375;-69
2020/12/28 06:34:59;;;;;;;;;;;22.20;52.70;;;;;;5095237;28;1376;-70
2020/12/28 06:37:25;;;;;;;;;;;22.20;52.80;;;;;;5077214;28;1740;-69
2020/12/28 06:39:55;;;;;;;;;;;22.20;52.80;;;;;;5077149;28;1626;-69
2020/12/28 06:42:20;;;;;;;;;;;22.20;52.90;;;;;;5077094;28;1786;-70
2020/12/28 06:44:46;;;;;;;;;;;22.20;52.90;;;;;;5076617;28;1756;-69
2020/12/28 06:47:15;;;;;;;;;;;22.10;52.90;;;;;;5076993;28;1657;-68
2020/12/28 06:49:41;;;;;;;;;;;22.10;52.90;;;;;;5079436;28;2141;-68
2020/12/28 06:52:06;;;;;;;;;;;22.10;53.00;;;;;;5078193;28;1474;-69
2020/12/28 06:54:32;;;;;;;;;;;22.10;53.10;;;;;;5100925;28;1362;-68
2020/12/28 06:57:01;;;;;;;;;;;22.10;53.10;;;;;;5091196;28;1492;-68
2020/12/28 06:59:27;;;;;;;;;;;22.10;53.10;;;;;;5083808;28;1395;-67
2020/12/28 07:01:52;;;;;;;;;;;22.00;53.10;;;;;;5093371;28;1641;-67
2020/12/28 07:04:18;;;;;;;;;;;22.00;53.20;;;;;;5074478;28;1275;-67
2020/12/28 07:06:43;;;;;;;;;;;22.00;53.20;;;;;;5074340;28;1444;-64
2020/12/28 07:09:09;;;;;;;;;;;22.00;53.20;;;;;;5092212;28;1611;-70
2020/12/28 07:11:34;;;;;;;;;;;21.90;53.20;;;;;;5092677;28;1963;-70
2020/12/28 07:14:03;;;;;;;;;;;21.90;53.30;;;;;;5074648;28;1724;-69
2020/12/28 07:16:29;;;;;;;;;;;21.90;53.30;;;;;;5097521;28;1385;-70
2020/12/28 07:19:00;;;;;;;;;;;21.90;53.30;;;;;;5113096;28;1603;-72
2020/12/28 07:21:25;;;;;;;;;;;21.90;53.40;;;;;;5095581;28;1440;-71
2020/12/28 07:23:51;;;;;;;;;;;21.90;53.40;;;;;;5082686;28;1464;-70
2020/12/28 07:26:16;;;;;;;;;;;21.90;53.40;;;;;;5112326;28;1706;-70
2020/12/28 07:28:45;;;;;;;;;;;21.80;53.40;;;;;;5090273;28;1403;-70
2020/12/28 07:31:10;;;;;;;;;;;21.80;53.50;;;;;;5094957;28;1975;-69
2020/12/28 07:33:43;;;;;;;;;;;21.80;53.50;;;;;;5112318;28;1606;-68
2020/12/28 07:36:09;;;;;;;;;;;21.80;53.50;;;;;;5104439;28;1734;-69
2020/12/28 07:38:35;;;;;;;;;;;21.80;53.50;;;;;;5113667;28;1344;-70
2020/12/28 07:41:00;;;;;;;;;;;21.80;53.60;;;;;;5106513;28;1157;-69
2020/12/28 07:43:27;;;;;;;;;;;21.80;53.60;;;;;;5088299;28;1637;-71
2020/12/28 07:45:52;;;;;;;;;;;21.80;53.70;;;;;;5105163;28;784;-71
2020/12/28 07:48:19;;;;;;;;;;;21.70;53.60;;;;;;5090719;28;1659;-71
2020/12/28 07:50:45;;;;;;;;;;;21.70;53.70;;;;;;5092028;28;1965;-68
2020/12/28 07:53:15;;;;;;;;;;;21.70;53.70;;;;;;5074240;28;1687;-68
2020/12/28 07:55:51;;;;;;;;;;;21.70;53.70;;;;;;5091811;28;1464;-68
2020/12/28 07:58:23;;;;;;;;;;;21.70;53.80;;;;;;5091385;28;1748;-68
2020/12/28 08:00:50;;;;;;;;;;;21.70;53.80;;;;;;5093615;28;1371;-68
2020/12/28 08:03:21;;;;;;;;;;;21.70;54.40;;;;;;5092214;28;1308;-68
2020/12/28 08:05:48;;;;;;;;;;;21.70;53.90;;;;;;5093364;28;1293;-67
2020/12/28 08:08:23;;;;;;;;;;;21.60;53.90;;;;;;5075733;28;1365;-68
2020/12/28 08:10:49;;;;;;;;;;;21.60;53.90;;;;;;5075188;28;1962;-68
2020/12/28 08:13:15;;;;;;;;;;;21.60;53.90;;;;;;5093185;28;1414;-68
2020/12/28 08:15:40;;;;;;;;;;;21.70;53.90;;;;;;5091897;28;1610;-68
2020/12/28 08:18:09;;;;;;;;;;;21.70;53.90;;;;;;5093510;28;1698;-68
2020/12/28 08:20:35;;;;;;;;;;;21.70;53.80;;;;;;5075133;28;1618;-68
2020/12/28 08:23:00;;;;;;;;;;;21.70;53.70;;;;;;5093327;28;1696;-68
2020/12/28 08:25:29;;;;;;;;;;;21.80;53.60;;;;;;5074797;28;1617;-68
2020/12/28 08:27:56;;;;;;;;;;;21.90;53.50;;;;;;5074852;28;1554;-68
2020/12/28 08:30:21;;;;;;;;;;;21.90;53.40;;;;;;5093168;28;2351;-68
2020/12/28 08:32:47;;;;;;;;;;;22.00;53.30;;;;;;5093088;28;1666;-68
2020/12/28 08:35:13;;;;;;;;;;;22.00;53.20;;;;;;5074702;28;1500;-68
2020/12/28 08:37:38;;;;;;;;;;;22.10;53.10;;;;;;5092938;28;1106;-68
2020/12/28 08:40:14;;;;;;;;;;;22.10;53.00;;;;;;5058163;28;1438;-70
2020/12/28 08:42:39;;;;;;;;;;;22.20;52.90;;;;;;5093008;28;1748;-70
2020/12/28 08:45:04;;;;;;;;;;;22.20;52.80;;;;;;5088388;28;2037;-71
2020/12/28 08:47:30;;;;;;;;;;;22.20;53.40;;;;;;5079592;28;1655;-71
2020/12/28 08:49:56;;;;;;;;;;;22.20;52.70;;;;;;5095145;28;3029;-70
2020/12/28 08:52:21;;;;;;;;;;;22.20;52.60;;;;;;5086119;28;1223;-71
2020/12/28 08:54:59;;;;;;;;;;;22.30;52.60;;;;;;5081289;28;1739;-72
2020/12/28 08:57:28;;;;;;;;;;;22.30;52.60;;;;;;5093540;28;1265;-71
2020/12/28 08:59:54;;;;;;;;;;;22.30;52.60;;;;;;5111119;28;1665;-72
2020/12/28 09:02:20;;;;;;;;;;;22.30;52.50;;;;;;5101657;28;1618;-70
2020/12/28 09:04:46;;;;;;;;;;;22.30;52.50;;;;;;5101521;28;1709;-71
2020/12/28 09:07:11;;;;;;;;;;;22.30;52.50;;;;;;5119885;28;1666;-71
2020/12/28 09:09:40;;;;;;;;;;;22.30;52.50;;;;;;5119904;28;1965;-71
2020/12/28 09:12:06;;;;;;;;;;;22.30;52.50;;;;;;5119899;28;1601;-70
2020/12/28 09:14:31;;;;;;;;;;;22.30;52.50;;;;;;5100563;28;1517;-71
2020/12/28 09:16:57;;;;;;;;;;;22.30;52.60;;;;;;5097926;28;1635;-71
2020/12/28 09:19:22;;;;;;;;;;;22.30;52.60;;;;;;5099393;28;1388;-71
2020/12/28 09:21:48;;;;;;;;;;;22.30;52.60;;;;;;5080025;28;2576;-70
2020/12/28 09:24:13;;;;;;;;;;;22.30;52.60;;;;;;5080883;28;1717;-71
2020/12/28 09:26:39;;;;;;;;;;;22.30;52.70;;;;;;5097979;28;1359;-71
2020/12/28 09:29:04;;;;;;;;;;;22.20;52.60;;;;;;5099404;28;1646;-70
2020/12/28 09:31:30;;;;;;;;;;;22.20;52.70;;;;;;5099063;28;1906;-70
2020/12/28 09:33:55;;;;;;;;;;;22.30;52.80;;;;;;5098964;28;1711;-70
2020/12/28 09:36:24;;;;;;;;;;;22.20;52.80;;;;;;5098008;28;1658;-70
2020/12/28 09:38:49;;;;;;;;;;;22.20;52.80;;;;;;5081299;28;1328;-70
2020/12/28 09:41:15;;;;;;;;;;;22.20;52.80;;;;;;5099407;28;1413;-70
2020/12/28 09:43:41;;;;;;;;;;;22.20;52.80;;;;;;5099013;28;1691;-70
2020/12/28 09:46:06;;;;;;;;;;;22.20;52.90;;;;;;5080812;28;1409;-70
2020/12/28 09:48:32;;;;;;;;;;;22.20;52.90;;;;;;5097544;28;1383;-71
2020/12/28 09:50:57;;;;;;;;;;;22.20;52.90;;;;;;5080425;28;1894;-71
2020/12/28 09:53:23;;;;;;;;;;;22.20;52.90;;;;;;5080972;28;1673;-72
2020/12/28 09:55:48;;;;;;;;;;;22.10;52.90;;;;;;5097783;28;1715;-71
2020/12/28 09:58:14;;;;;;;;;;;22.10;53.00;;;;;;5096416;28;1686;-71
2020/12/28 10:00:39;;;;;;;;;;;22.10;53.00;;;;;;5094553;28;1693;-71
2020/12/28 10:03:04;;;;;;;;;;;22.10;53.10;;;;;;5095950;28;1652;-70
2020/12/28 10:05:30;;;;;;;;;;;22.10;53.10;;;;;;5095658;28;1704;-70
2020/12/28 10:07:59;;;;;;;;;;;22.10;53.10;;;;;;5077674;28;1445;-70
2020/12/28 10:10:24;;;;;;;;;;;22.10;53.10;;;;;;5095413;28;1965;-71
2020/12/28 10:12:50;;;;;;;;;;;22.10;53.10;;;;;;5077317;28;1063;-70
2020/12/28 10:15:15;;;;;;;;;;;22.10;53.10;;;;;;5089773;28;1898;-70
2020/12/28 10:18:01;;;;;;;;;;;22.00;53.10;;;;;;5093740;28;1443;-71
2020/12/28 10:20:26;;;;;;;;;;;22.10;53.10;;;;;;5095389;28;1329;-71
2020/12/28 10:22:52;;;;;;;;;;;22.10;53.10;;;;;;5103598;28;1168;-71
2020/12/28 10:25:17;;;;;;;;;;;22.10;53.00;;;;;;5095485;28;1463;-71
2020/12/28 10:27:43;;;;;;;;;;;22.10;53.00;;;;;;5107909;28;1305;-71
2020/12/28 10:30:08;;;;;;;;;;;22.10;53.00;;;;;;5095750;28;1906;-71
2020/12/28 10:32:34;;;;;;;;;;;22.10;53.00;;;;;;5093060;28;1810;-72
2020/12/28 10:34:59;;;;;;;;;;;22.10;53.50;;;;;;5073548;28;1316;-69
2020/12/28 10:37:24;;;;;;;;;;;22.20;53.00;;;;;;5093916;28;1329;-70
2020/12/28 10:39:50;;;;;;;;;;;22.10;53.00;;;;;;5092338;28;1227;-71
2020/12/28 10:42:15;;;;;;;;;;;22.20;53.00;;;;;;5093879;28;1310;-70
2020/12/28 10:44:41;;;;;;;;;;;22.20;53.00;;;;;;5093998;28;1726;-69
2020/12/28 10:47:06;;;;;;;;;;;22.10;53.00;;;;;;5093695;28;1272;-71
2020/12/28 10:49:32;;;;;;;;;;;22.20;53.00;;;;;;5093698;28;1910;-70
2020/12/28 10:51:57;;;;;;;;;;;22.20;53.00;;;;;;5078974;28;1146;-70
2020/12/28 10:54:23;;;;;;;;;;;22.20;53.00;;;;;;5095762;28;1374;-70
2020/12/28 10:56:48;;;;;;;;;;;22.20;52.90;;;;;;5094243;28;1286;-70
2020/12/28 10:59:14;;;;;;;;;;;22.20;52.90;;;;;;5093680;28;1306;-70
2020/12/28 11:01:39;;;;;;;;;;;22.20;52.80;;;;;;5075301;28;1352;-70
2020/12/28 11:04:05;;;;;;;;;;;22.20;52.80;;;;;;5093456;28;1295;-70
2020/12/28 11:06:31;;;;;;;;;;;22.20;52.70;;;;;;5093345;28;1265;-70
2020/12/28 11:08:56;;;;;;;;;;;22.20;52.60;;;;;;5093198;28;1328;-71
2020/12/28 11:11:22;;;;;;;;;;;22.20;52.60;;;;;;5093259;28;1910;-70
2020/12/28 11:13:48;;;;;;;;;;;22.30;52.60;;;;;;5086390;28;1926;-70
2020/12/28 11:16:14;;;;;;;;;;;22.30;52.50;;;;;;5073820;28;1269;-71
2020/12/28 11:18:40;;;;;;;;;;;22.30;52.50;;;;;;5091987;28;1297;-71
2020/12/28 11:21:05;;;;;;;;;;;22.30;52.50;;;;;;5074897;28;1334;-70
2020/12/28 11:26:17;;;;;;;;;;;22.30;52.50;;;;;;5091483;22;2412;-65
2020/12/28 11:28:42;;;;;;;;;;;22.30;52.50;;;;;;5072861;28;1836;-65
2020/12/28 11:31:08;;;;;;;;;;;22.30;52.50;;;;;;5092656;28;1977;-65
2020/12/28 11:33:33;;;;;;;;;;;22.30;52.50;;;;;;5104439;28;1613;-65
2020/12/28 11:35:59;;;;;;;;;;;22.30;52.50;;;;;;5093051;28;1927;-66
2020/12/28 11:38:24;;;;;;;;;;;22.30;52.50;;;;;;5069636;28;1144;-66
2020/12/28 11:40:50;;;;;;;;;;;22.30;52.50;;;;;;5072577;28;1620;-65
2020/12/28 11:43:15;;;;;;;;;;;22.30;52.50;;;;;;5054404;28;1351;-66
2020/12/28 11:45:41;;;;;;;;;;;22.30;52.50;;;;;;5089735;28;1465;-65
2020/12/28 11:48:06;;;;;;;;;;;22.30;52.50;;;;;;5074533;28;1585;-66
2020/12/28 11:50:32;;;;;;;;;;;22.30;52.50;;;;;;5087590;28;1948;-66
2020/12/28 11:52:57;;;;;;;;;;;22.30;52.50;;;;;;5071496;28;3817;-66
2020/12/28 11:55:23;;;;;;;;;;;22.30;52.40;;;;;;5077614;28;1363;-67
2020/12/28 11:57:48;;;;;;;;;;;22.30;52.40;;;;;;5083220;28;1433;-66
2020/12/28 12:00:14;;;;;;;;;;;22.30;52.40;;;;;;5090641;28;1630;-66
2020/12/28 12:02:39;;;;;;;;;;;22.40;52.40;;;;;;5092450;28;1670;-66
2020/12/28 12:05:05;;;;;;;;;;;22.40;52.40;;;;;;5092160;28;1671;-67
2020/12/28 12:07:30;;;;;;;;;;;22.40;52.30;;;;;;5092165;28;1246;-67
2020/12/28 12:09:56;;;;;;;;;;;22.40;52.20;;;;;;5092235;28;1961;-66
2020/12/28 12:12:21;;;;;;;;;;;22.40;52.20;;;;;;5091567;28;1357;-66
2020/12/28 12:14:46;;;;;;;;;;;22.40;52.20;;;;;;5071132;28;2115;-67
2020/12/28 12:17:12;;;;;;;;;;;22.40;52.20;;;;;;5059096;28;1881;-65
2020/12/28 12:19:37;;;;;;;;;;;22.40;52.20;;;;;;5080902;28;1360;-65
2020/12/28 12:22:03;;;;;;;;;;;22.40;52.10;;;;;;5071274;28;1721;-64
2020/12/28 12:24:29;;;;;;;;;;;22.40;52.10;;;;;;5069229;28;1579;-64
2020/12/28 12:26:54;;;;;;;;;;;22.40;52.20;;;;;;5071886;28;1373;-64
2020/12/28 12:29:20;;;;;;;;;;;22.40;52.10;;;;;;5071757;28;1699;-64
2020/12/28 12:31:48;;;;;;;;;;;22.40;52.20;;;;;;5071621;28;1973;-65
2020/12/28 12:34:13;;;;;;;;;;;22.40;52.20;;;;;;5071471;28;1433;-66
2020/12/28 12:36:39;;;;;;;;;;;22.40;52.20;;;;;;5070888;28;1368;-65
2020/12/28 12:39:04;;;;;;;;;;;22.40;52.20;;;;;;5088977;28;1331;-66
2020/12/28 12:41:30;;;;;;;;;;;22.40;52.20;;;;;;5091945;28;1535;-65
2020/12/28 12:43:55;;;;;;;;;;;22.30;52.20;;;;;;5083072;28;2002;-65
2020/12/28 12:46:20;;;;;;;;;;;22.30;52.20;;;;;;5068087;28;1414;-65
2020/12/28 12:48:46;;;;;;;;;;;22.30;52.20;;;;;;5069798;28;1646;-67
2020/12/28 12:51:12;;;;;;;;;;;22.30;52.30;;;;;;5068309;28;1897;-66
2020/12/28 12:53:38;;;;;;;;;;;22.30;52.30;;;;;;5069257;28;1678;-69
2020/12/28 12:56:03;;;;;;;;;;;22.30;52.40;;;;;;5069677;28;1193;-68
2020/12/28 12:58:29;;;;;;;;;;;22.30;52.40;;;;;;5074248;28;1453;-66
2020/12/28 13:00:54;;;;;;;;;;;22.20;52.40;;;;;;5091854;28;1192;-65
2020/12/28 13:03:19;;;;;;;;;;;22.20;52.40;;;;;;5082164;28;1665;-67
2020/12/28 13:05:45;;;;;;;;;;;22.20;52.40;;;;;;5091604;28;1247;-65
2020/12/28 13:08:10;;;;;;;;;;;22.20;52.50;;;;;;5082101;28;2226;-67
2020/12/28 13:10:36;;;;;;;;;;;22.20;52.50;;;;;;5062484;28;2051;-67
2020/12/28 13:13:01;;;;;;;;;;;22.20;52.50;;;;;;5072664;28;933;-67
2020/12/28 13:15:27;;;;;;;;;;;22.10;52.50;;;;;;5089960;28;1570;-67
2020/12/28 13:17:52;;;;;;;;;;;22.10;52.60;;;;;;5072684;28;1391;-67
2020/12/28 13:20:20;;;;;;;;;;;22.10;52.60;;;;;;5073283;28;1680;-69
2020/12/28 13:22:46;;;;;;;;;;;22.10;52.60;;;;;;5073677;28;1583;-67
2020/12/28 13:25:12;;;;;;;;;;;22.10;52.70;;;;;;5091155;28;1555;-67
2020/12/28 13:27:37;;;;;;;;;;;22.10;52.70;;;;;;5091392;28;1165;-67
2020/12/28 13:30:03;;;;;;;;;;;22.10;52.80;;;;;;5084249;28;1969;-67
2020/12/28 13:32:29;;;;;;;;;;;22.00;52.80;;;;;;5092359;28;1353;-68
2020/12/28 13:34:54;;;;;;;;;;;22.00;52.80;;;;;;5095141;28;1628;-68
2020/12/28 13:37:20;;;;;;;;;;;22.00;52.80;;;;;;5094955;28;1634;-67
2020/12/28 13:39:45;;;;;;;;;;;22.00;52.80;;;;;;5095135;28;1689;-67
2020/12/28 13:42:11;;;;;;;;;;;22.00;52.80;;;;;;5095199;28;1648;-67
2020/12/28 13:44:36;;;;;;;;;;;21.90;52.80;;;;;;5094985;28;1677;-67
2020/12/28 13:47:02;;;;;;;;;;;21.90;52.80;;;;;;5094980;28;1651;-66
2020/12/28 13:49:27;;;;;;;;;;;21.90;52.90;;;;;;5094825;28;1905;-66
2020/12/28 13:51:54;;;;;;;;;;;21.90;52.90;;;;;;5078197;28;1246;-67
2020/12/28 13:54:20;;;;;;;;;;;21.90;52.90;;;;;;5073046;28;1250;-66
2020/12/28 13:56:45;;;;;;;;;;;21.90;52.90;;;;;;5074661;28;1318;-66
2020/12/28 13:59:11;;;;;;;;;;;21.80;52.90;;;;;;5065943;28;1534;-66
2020/12/28 14:01:36;;;;;;;;;;;21.80;52.90;;;;;;5094748;28;1352;-67
2020/12/28 14:04:01;;;;;;;;;;;21.80;52.90;;;;;;5094566;28;1254;-66
2020/12/28 14:06:27;;;;;;;;;;;21.80;52.90;;;;;;5063117;28;1377;-67
2020/12/28 14:08:53;;;;;;;;;;;21.80;52.90;;;;;;5094674;28;1268;-66
2020/12/28 14:11:24;;;;;;;;;;;21.80;53.00;;;;;;5094384;28;1893;-66
2020/12/28 14:13:50;;;;;;;;;;;21.80;53.00;;;;;;5073824;28;1419;-67
2020/12/28 14:16:15;;;;;;;;;;;21.70;53.00;;;;;;5094062;28;1571;-67
2020/12/28 14:18:41;;;;;;;;;;;21.80;53.10;;;;;;5076463;28;1645;-66
2020/12/28 14:21:07;;;;;;;;;;;21.70;53.10;;;;;;5094218;28;1580;-67
2020/12/28 14:23:32;;;;;;;;;;;21.70;53.10;;;;;;5076130;28;1625;-66
2020/12/28 14:25:58;;;;;;;;;;;21.80;53.30;;;;;;5093894;28;1619;-66